Malone, Texas
Current Conditions -  °F | °C
As of 4:55 AM on Friday 19 Dec 2014 (Local Time) from KINJ Reporting Station
Haze Haze  
Wind Chill:   Ceiling: 600
Heat Index:   Visibility: 4mi
Dew Point:   Wind: 18mph
Humidity: 91%   Direction: 340°NNW
Pressure: 30.14"   Gusts: 22mph
Location:  31.92°N, 96.89°W
Report Text: KINJ 191055Z AUTO 34016G19KT 4SM BR OVC006 08/07 A3014 RMK AO2 T00800066
Loading
Personal Weather Stations






























Interactive Weather Map New forecast layout! Learn more

10-Day Weather Forecast

Advertisements
Track Severe Weather on mobile